Scott City, Kansas
Current Conditions -  °F | °C
As of 1:54 PM on Tuesday 21 Oct 2014 (Local Time) from KGCK Reporting Station
Clear Clear  
Wind Chill: 76°   Ceiling: Unl
Heat Index: 76°   Visibility: 10mi
Dew Point: 54°   Wind: 13mph
Humidity: 46%   Direction: 190°S
Pressure: 30.03"   Gusts: 17mph
Location:  38.48°N, 100.91°W
Report Text: KGCK 211854Z 19011G15KT 10SM CLR 24/12 A3003 RMK AO2 SLP148 T02440122
Loading
Personal Weather Stations






























Interactive Weather Map
Tropical Storm Tracking
New forecast layout! Learn more

10-Day Weather Forecast

Advertisements
Track Severe Weather on mobile